To NAV CANADA Home Page Login to a new session Search on AWWS site Feedback and Comments Disclaimer Vers la page française équivalente Tips FAQ What's new on the site To the Forecasts and Observations / NOTAM section To "File a Flight Plan" website Publications and other links Update of the User's profile FIC Telephone Numbers My Weather Data Folder Route Weather Data Regional Weather Data Local Weather Data To the Forecasts and Observations / NOTAM section
Request Generated 04/23/2014 at 14:53:36 UTC . Weather information available at that time is displayed.

METAR/TAF

NAIN/NL    

METAR CYDP 231400Z 06007KT 15SM -SHSN FEW010 OVC022 M04/M07 A3011 RMK SF1SC7 SLP199=
METAR CYDP 231300Z 00000KT 15SM -SHSN FEW010 BKN022 M06/M09 A3011 RMK SF2SC5 SLP198=
METAR CYDP 231200Z 34003KT 15SM -SHSN FEW011 SCT022 BKN090 M06/M09 A3010 RMK SF1SC2AS2 SLP195=

TAF CYDP 231338Z 2314/2323 VRB03KT P6SM SCT012 OVC040 TEMPO 2314/2320
5SM -SN OVC012
BECMG 2314/2316 09015KT
FM232000 10012G22KT P6SM BKN040 OVC100
RMK NXT FCST BY 232000Z=
Your time UTC time
Weather data provided by Environment Canada and NAV CANADA